Terminal Aerodrome Forecast
Issued by NWS

Home | Current Version | Previous Version | Graphics & Text | Print | Product List | Glossary On
Versions: 1 2 3 4 5 6 7 8 9 10 11 12 13 14 15 16 17
000
FTUS43 KMPX 241100
TAFRNH
TAF
KRNH 241125Z 2412/2512 13008KT P6SM VCSH BKN018 OVC035
     FM241400 15010KT P6SM BKN020 OVC070
     FM241800 16012KT P6SM SCT025 BKN180
     FM250200 18008KT P6SM VCTS SCT025CB BKN060
      TEMPO 2503/2506 2SM -TSRA BKN020CB
     FM250700 19003KT P6SM SCT030 BKN100=

USA.gov is the U.S. government's official web portal to all federal, state and local government web resources and services.